Mexico V — XCKR — position and weather

sailwx.info

Track history (hours):
 
Tides and Currents Weather Stations Pressure Air Temp Water Temp Dewpoint Dewpoint Depression Visibility Wind Speed Wind Dir Waves Ship Positions

Mexico V

Last reported at 2016-Jul-01 02:34 UTC. Time now 2016-Jul-01 06:24 UTC.
Position N 20°31' W 086°57'.

Length 40 m; draft 1.5 m.

Type: Ship. MMSI: 345110005.

Date/timePositionNaut miles runAvg speedWind from/ knotsBaromVisibWave heightAir tempDewpointWater temp
2016-Jul-01 02:34N 20°31' W 086°57'4 3.4
2016-Jul-01 01:22N 20°34' W 087°01'5 5.9
2016-Jul-01 00:34N 20°31' W 086°57'0 0.0
2016-Jun-30 23:34N 20°31' W 086°57'3 2.6
2016-Jun-30 22:34N 20°33' W 086°59'3 2.9
2016-Jun-30 21:24N 20°35' W 087°01'6 6.9
2016-Jun-30 20:33N 20°31' W 086°57'2 1.7
2016-Jun-30 19:33N 20°32' W 086°58'3 2.1
2016-Jun-30 18:21N 20°34' W 087°00'2 2.5
2016-Jun-30 17:33N 20°32' W 086°59'2 2.0
2016-Jun-30 16:19N 20°34' W 087°00'1 1.9
2016-Jun-30 15:34N 20°33' W 086°60'1 1.1
2016-Jun-30 14:18N 20°34' W 087°01'5 6.3
2016-Jun-30 13:33N 20°31' W 086°57'0 0.0
2016-Jun-30 12:34N 20°31' W 086°57'0 0.0
2016-Jun-30 01:34N 20°31' W 086°57'4 3.5
2016-Jun-30 00:20N 20°34' W 087°00'3 3.5
2016-Jun-29 23:33N 20°32' W 086°58'3 2.8
2016-Jun-29 22:23N 20°34' W 087°01'5 6.1
2016-Jun-29 21:33N 20°31' W 086°57'0 0.1
2016-Jun-29 20:33N 20°31' W 086°57'0 0.0
2016-Jun-29 19:33N 20°31' W 086°57'0 0.0
2016-Jun-29 18:33N 20°31' W 086°57'0 0.0
2016-Jun-29 17:33N 20°31' W 086°57'1 0.7
2016-Jun-29 16:33N 20°31' W 086°58'5 4.0
2016-Jun-29 15:20N 20°35' W 087°01'5 6.3
2016-Jun-29 14:33N 20°31' W 086°57'4 3.3
2016-Jun-29 13:19N 20°34' W 087°01'5 6.2
2016-Jun-29 12:33N 20°31' W 086°57'0 0.0
2016-Jun-29 03:33N 20°31' W 086°57'4 3.6
2016-Jun-29 02:21N 20°34' W 087°01'5 5.9
2016-Jun-29 01:33N 20°31' W 086°57'1 1.1
2016-Jun-29 00:33N 20°32' W 086°58'4 3.1
2016-Jun-28 23:21N 20°34' W 087°01'5 6.1
2016-Jun-28 22:34N 20°31' W 086°57'0 0.1
2016-Jun-28 21:34N 20°31' W 086°57'5 3.3
2016-Jun-28 20:03N 20°34' W 087°01'510.0
2016-Jun-28 19:33N 20°31' W 086°57'0 0.1
2016-Jun-28 18:33N 20°31' W 086°57'1 1.2
2016-Jun-28 17:34N 20°32' W 086°58'3 2.1
2016-Jun-28 16:16N 20°33' W 087°00'1 1.6
2016-Jun-28 15:33N 20°33' W 086°59'4 1.3
2016-Jun-28 12:33N 20°29' W 086°59'0 0.2
2016-Jun-28 11:33N 20°29' W 086°59'3 0.3
2016-Jun-28 01:34N 20°32' W 086°58'2 2.0
2016-Jun-28 00:19N 20°33' W 087°00'3 4.0
2016-Jun-27 23:33N 20°31' W 086°58'4 3.0
2016-Jun-27 22:21N 20°34' W 087°01'4 5.6
2016-Jun-27 21:33N 20°31' W 086°57'0 0.1
2016-Jun-27 20:33N 20°31' W 086°57'3 2.4
2016-Jun-27 19:16N 20°33' W 086°60'3 4.5
2016-Jun-27 18:33N 20°31' W 086°57'0 0.0
2016-Jun-27 17:33N 20°31' W 086°57'2 1.7
2016-Jun-27 16:33N 20°32' W 086°58'6 5.0
2016-Jun-27 15:25N 20°36' W 087°03'7 8.4
2016-Jun-27 14:33N 20°31' W 086°57'4 3.1
2016-Jun-27 13:17N 20°34' W 087°00'4 5.4
2016-Jun-27 12:33N 20°31' W 086°57'4 3.5
2016-Jun-27 11:20N 20°34' W 087°00'4 0.6
2016-Jun-27 03:33N 20°31' W 086°57'7 6.5
2016-Jun-27 02:29N 20°36' W 087°02'7 7.7
2016-Jun-27 01:33N 20°31' W 086°57'0 0.1
2016-Jun-27 00:33N 20°31' W 086°57'0 0.0
2016-Jun-26 23:33N 20°31' W 086°57'2 1.8
2016-Jun-26 22:33N 20°32' W 086°58'5 4.0
2016-Jun-26 21:23N 20°36' W 087°01'6 7.6
2016-Jun-26 20:34N 20°31' W 086°57'1 0.8
2016-Jun-26 19:33N 20°31' W 086°58'5 3.9
2016-Jun-26 18:23N 20°35' W 087°01'3 3.7
2016-Jun-26 17:34N 20°33' W 086°59'1 1.1
2016-Jun-26 16:17N 20°33' W 086°60'2 2.7
2016-Jun-26 15:33N 20°32' W 086°58'3 2.2
2016-Jun-26 14:20N 20°34' W 087°00'4 5.8
2016-Jun-26 13:33N 20°31' W 086°57'0 0.0
2016-Jun-26 12:33N 20°31' W 086°57'0 0.0
2016-Jun-26 11:33N 20°31' W 086°57'0 0.0
2016-Jun-26 01:34N 20°31' W 086°57'5 4.2
2016-Jun-26 00:21N 20°35' W 087°01'5 6.4
2016-Jun-25 23:33N 20°31' W 086°57'4 3.2
2016-Jun-25 22:20N 20°34' W 087°00'4 5.1
2016-Jun-25 21:33N 20°31' W 086°57'0 0.1
2016-Jun-25 20:33N 20°31' W 086°57'0 0.0
2016-Jun-25 19:33N 20°31' W 086°57'0 0.5
2016-Jun-25 18:33N 20°31' W 086°58'1 0.5
2016-Jun-25 17:33N 20°31' W 086°57'0 0.0
2016-Jun-25 16:33N 20°31' W 086°57'0 0.0
2016-Jun-25 15:33N 20°31' W 086°57'1 1.4
2016-Jun-25 14:33N 20°32' W 086°58'3 2.2
2016-Jun-25 13:18N 20°34' W 087°00'4 5.7
2016-Jun-25 12:33N 20°31' W 086°57'0 0.0
2016-Jun-25 11:34N 20°31' W 086°57'2 0.2
2016-Jun-25 03:34N 20°32' W 086°58'3 2.1
2016-Jun-25 02:21N 20°34' W 087°00'4 5.6
2016-Jun-25 01:33N 20°31' W 086°57'0 0.0
2016-Jun-25 00:33N 20°31' W 086°57'0 0.0
2016-Jun-24 23:33N 20°31' W 086°57'0 0.5
2016-Jun-24 22:34N 20°31' W 086°57'5 3.6
2016-Jun-24 21:19N 20°34' W 087°01'5 6.4
2016-Jun-24 20:33N 20°31' W 086°57'1 0.7
2016-Jun-24 19:34N 20°31' W 086°58'5 4.1
2016-Jun-24 18:22N 20°35' W 087°01'3 4.1
2016-Jun-24 17:34N 20°32' W 086°59'3 2.7
2016-Jun-24 16:22N 20°35' W 087°01'4 4.7
2016-Jun-24 15:33N 20°32' W 086°58'3 2.7
2016-Jun-24 14:21N 20°34' W 087°01'5 6.3
2016-Jun-24 13:33N 20°31' W 086°57'0 0.0
2016-Jun-24 12:33N 20°31' W 086°57'0 0.0
2016-Jun-24 11:33N 20°31' W 086°57'0 0.0
2016-Jun-23 21:20N 20°31' W 086°57'0 0.0
2016-Jun-23 20:33N 20°31' W 086°57'0 0.0
2016-Jun-23 19:33N 20°31' W 086°57'2 2.0
2016-Jun-23 18:34N 20°32' W 086°58'3 2.5
2016-Jun-23 17:20N 20°34' W 087°01'2 3.1
2016-Jun-23 16:33N 20°33' W 086°59'2 1.5
2016-Jun-23 15:17N 20°34' W 087°00'4 5.0
2016-Jun-23 14:34N 20°31' W 086°58'4 2.9
2016-Jun-23 13:18N 20°34' W 087°00'5 6.0
2016-Jun-23 12:33N 20°31' W 086°57'6 4.8
2016-Jun-23 11:23N 20°35' W 087°01'6 6.9
2016-Jun-23 10:34N 20°31' W 086°57'0 0.0
2016-Jun-23 03:11N 20°31' W 086°57'0 0.0
2016-Jun-23 02:33N 20°31' W 086°57'5 3.5
2016-Jun-23 01:17N 20°34' W 087°01'5 6.3
2016-Jun-23 00:33N 20°31' W 086°57'0 0.0
2016-Jun-22 23:34N 20°31' W 086°57'0 0.1
2016-Jun-22 22:33N 20°31' W 086°57'5 3.9
2016-Jun-22 21:20N 20°34' W 087°01'5 6.2
2016-Jun-22 20:33N 20°31' W 086°57'0 0.3
2016-Jun-22 19:33N 20°31' W 086°57'0 0.4
2016-Jun-22 18:33N 20°31' W 086°57'1 1.2
2016-Jun-22 17:33N 20°32' W 086°58'5 4.5
2016-Jun-22 16:25N 20°35' W 087°02'4 4.8
2016-Jun-22 15:33N 20°32' W 086°59'2 1.3
2016-Jun-22 14:16N 20°34' W 087°00'3 4.3
2016-Jun-22 13:34N 20°31' W 086°58'5 4.6
2016-Jun-22 12:23N 20°35' W 087°02'6 7.5
2016-Jun-22 11:33N 20°31' W 086°57'0 0.0
2016-Jun-22 01:34N 20°31' W 086°57'4 3.0
2016-Jun-22 00:15N 20°33' W 087°00'4 5.2
2016-Jun-21 23:34N 20°31' W 086°57'4 3.4
2016-Jun-21 22:22N 20°34' W 087°01'4 5.4
2016-Jun-21 21:33N 20°31' W 086°57'0 0.1
2016-Jun-21 20:34N 20°31' W 086°57'0 0.0
2016-Jun-21 19:33N 20°31' W 086°57'0 0.0
2016-Jun-21 18:33N 20°31' W 086°57'0 0.0
2016-Jun-21 17:33N 20°31' W 086°57'3 2.6
2016-Jun-21 16:33N 20°33' W 086°59'2 1.9
2016-Jun-21 15:18N 20°34' W 087°01'5 6.5
2016-Jun-21 14:34N 20°31' W 086°57'4 3.2
2016-Jun-21 13:18N 20°34' W 087°00'3 4.1
2016-Jun-21 12:34N 20°31' W 086°58'5 4.5
2016-Jun-21 11:23N 20°35' W 087°02'5 0.7
2016-Jun-21 03:34N 20°32' W 086°58'  
Track history (hours):
 
Tides and Currents Weather Stations Pressure Air Temp Water Temp Dewpoint Dewpoint Depression Visibility Wind Speed Wind Dir Waves Ship Positions

Mexico V

Last reported at 2016-Jul-01 02:34 UTC. Time now 2016-Jul-01 06:25 UTC.
Position N 20°31' W 086°57'.

Length 40 m; draft 1.5 m.

Type: Ship. MMSI: 345110005.

Date/timePositionNaut miles runAvg speedWind from/ knotsBaromVisibWave heightAir tempDewpointWater temp
2016-Jul-01 02:34N 20°31' W 086°57'4 3.4
2016-Jul-01 01:22N 20°34' W 087°01'5 5.9
2016-Jul-01 00:34N 20°31' W 086°57'0 0.0
2016-Jun-30 23:34N 20°31' W 086°57'3 2.6
2016-Jun-30 22:34N 20°33' W 086°59'3 2.9
2016-Jun-30 21:24N 20°35' W 087°01'6 6.9
2016-Jun-30 20:33N 20°31' W 086°57'2 1.7
2016-Jun-30 19:33N 20°32' W 086°58'3 2.1
2016-Jun-30 18:21N 20°34' W 087°00'2 2.5
2016-Jun-30 17:33N 20°32' W 086°59'2 2.0
2016-Jun-30 16:19N 20°34' W 087°00'1 1.9
2016-Jun-30 15:34N 20°33' W 086°60'1 1.1
2016-Jun-30 14:18N 20°34' W 087°01'5 6.3
2016-Jun-30 13:33N 20°31' W 086°57'0 0.0
2016-Jun-30 12:34N 20°31' W 086°57'0 0.0
2016-Jun-30 01:34N 20°31' W 086°57'4 3.5
2016-Jun-30 00:20N 20°34' W 087°00'3 3.5
2016-Jun-29 23:33N 20°32' W 086°58'3 2.8
2016-Jun-29 22:23N 20°34' W 087°01'5 6.1
2016-Jun-29 21:33N 20°31' W 086°57'0 0.1
2016-Jun-29 20:33N 20°31' W 086°57'0 0.0
2016-Jun-29 19:33N 20°31' W 086°57'0 0.0
2016-Jun-29 18:33N 20°31' W 086°57'0 0.0
2016-Jun-29 17:33N 20°31' W 086°57'1 0.7
2016-Jun-29 16:33N 20°31' W 086°58'5 4.0
2016-Jun-29 15:20N 20°35' W 087°01'5 6.3
2016-Jun-29 14:33N 20°31' W 086°57'4 3.3
2016-Jun-29 13:19N 20°34' W 087°01'5 6.2
2016-Jun-29 12:33N 20°31' W 086°57'0 0.0
2016-Jun-29 03:33N 20°31' W 086°57'4 3.6
2016-Jun-29 02:21N 20°34' W 087°01'5 5.9
2016-Jun-29 01:33N 20°31' W 086°57'1 1.1
2016-Jun-29 00:33N 20°32' W 086°58'4 3.1
2016-Jun-28 23:21N 20°34' W 087°01'5 6.1
2016-Jun-28 22:34N 20°31' W 086°57'0 0.1
2016-Jun-28 21:34N 20°31' W 086°57'5 3.3
2016-Jun-28 20:03N 20°34' W 087°01'510.0
2016-Jun-28 19:33N 20°31' W 086°57'0 0.1
2016-Jun-28 18:33N 20°31' W 086°57'1 1.2
2016-Jun-28 17:34N 20°32' W 086°58'3 2.1
2016-Jun-28 16:16N 20°33' W 087°00'1 1.6
2016-Jun-28 15:33N 20°33' W 086°59'4 1.3
2016-Jun-28 12:33N 20°29' W 086°59'0 0.2
2016-Jun-28 11:33N 20°29' W 086°59'3 0.3
2016-Jun-28 01:34N 20°32' W 086°58'2 2.0
2016-Jun-28 00:19N 20°33' W 087°00'3 4.0
2016-Jun-27 23:33N 20°31' W 086°58'4 3.0
2016-Jun-27 22:21N 20°34' W 087°01'4 5.6
2016-Jun-27 21:33N 20°31' W 086°57'0 0.1
2016-Jun-27 20:33N 20°31' W 086°57'3 2.4
2016-Jun-27 19:16N 20°33' W 086°60'3 4.5
2016-Jun-27 18:33N 20°31' W 086°57'0 0.0
2016-Jun-27 17:33N 20°31' W 086°57'2 1.7
2016-Jun-27 16:33N 20°32' W 086°58'6 5.0
2016-Jun-27 15:25N 20°36' W 087°03'7 8.4
2016-Jun-27 14:33N 20°31' W 086°57'4 3.1
2016-Jun-27 13:17N 20°34' W 087°00'4 5.4
2016-Jun-27 12:33N 20°31' W 086°57'4 3.5
2016-Jun-27 11:20N 20°34' W 087°00'4 0.6
2016-Jun-27 03:33N 20°31' W 086°57'7 6.5
2016-Jun-27 02:29N 20°36' W 087°02'7 7.7
2016-Jun-27 01:33N 20°31' W 086°57'0 0.1
2016-Jun-27 00:33N 20°31' W 086°57'0 0.0
2016-Jun-26 23:33N 20°31' W 086°57'2 1.8
2016-Jun-26 22:33N 20°32' W 086°58'5 4.0
2016-Jun-26 21:23N 20°36' W 087°01'6 7.6
2016-Jun-26 20:34N 20°31' W 086°57'1 0.8
2016-Jun-26 19:33N 20°31' W 086°58'5 3.9
2016-Jun-26 18:23N 20°35' W 087°01'3 3.7
2016-Jun-26 17:34N 20°33' W 086°59'1 1.1
2016-Jun-26 16:17N 20°33' W 086°60'2 2.7
2016-Jun-26 15:33N 20°32' W 086°58'3 2.2
2016-Jun-26 14:20N 20°34' W 087°00'4 5.8
2016-Jun-26 13:33N 20°31' W 086°57'0 0.0
2016-Jun-26 12:33N 20°31' W 086°57'0 0.0
2016-Jun-26 11:33N 20°31' W 086°57'0 0.0
2016-Jun-26 01:34N 20°31' W 086°57'5 4.2
2016-Jun-26 00:21N 20°35' W 087°01'5 6.4
2016-Jun-25 23:33N 20°31' W 086°57'4 3.2
2016-Jun-25 22:20N 20°34' W 087°00'4 5.1
2016-Jun-25 21:33N 20°31' W 086°57'0 0.1
2016-Jun-25 20:33N 20°31' W 086°57'0 0.0
2016-Jun-25 19:33N 20°31' W 086°57'0 0.5
2016-Jun-25 18:33N 20°31' W 086°58'1 0.5
2016-Jun-25 17:33N 20°31' W 086°57'0 0.0
2016-Jun-25 16:33N 20°31' W 086°57'0 0.0
2016-Jun-25 15:33N 20°31' W 086°57'1 1.4
2016-Jun-25 14:33N 20°32' W 086°58'3 2.2
2016-Jun-25 13:18N 20°34' W 087°00'4 5.7
2016-Jun-25 12:33N 20°31' W 086°57'0 0.0
2016-Jun-25 11:34N 20°31' W 086°57'2 0.2
2016-Jun-25 03:34N 20°32' W 086°58'3 2.1
2016-Jun-25 02:21N 20°34' W 087°00'4 5.6
2016-Jun-25 01:33N 20°31' W 086°57'0 0.0
2016-Jun-25 00:33N 20°31' W 086°57'0 0.0
2016-Jun-24 23:33N 20°31' W 086°57'0 0.5
2016-Jun-24 22:34N 20°31' W 086°57'5 3.6
2016-Jun-24 21:19N 20°34' W 087°01'5 6.4
2016-Jun-24 20:33N 20°31' W 086°57'1 0.7
2016-Jun-24 19:34N 20°31' W 086°58'5 4.1
2016-Jun-24 18:22N 20°35' W 087°01'3 4.1
2016-Jun-24 17:34N 20°32' W 086°59'3 2.7
2016-Jun-24 16:22N 20°35' W 087°01'4 4.7
2016-Jun-24 15:33N 20°32' W 086°58'3 2.7
2016-Jun-24 14:21N 20°34' W 087°01'5 6.3
2016-Jun-24 13:33N 20°31' W 086°57'0 0.0
2016-Jun-24 12:33N 20°31' W 086°57'0 0.0
2016-Jun-24 11:33N 20°31' W 086°57'0 0.0
2016-Jun-23 21:20N 20°31' W 086°57'0 0.0
2016-Jun-23 20:33N 20°31' W 086°57'0 0.0
2016-Jun-23 19:33N 20°31' W 086°57'2 2.0
2016-Jun-23 18:34N 20°32' W 086°58'3 2.5
2016-Jun-23 17:20N 20°34' W 087°01'2 3.1
2016-Jun-23 16:33N 20°33' W 086°59'2 1.5
2016-Jun-23 15:17N 20°34' W 087°00'4 5.0
2016-Jun-23 14:34N 20°31' W 086°58'4 2.9
2016-Jun-23 13:18N 20°34' W 087°00'5 6.0
2016-Jun-23 12:33N 20°31' W 086°57'6 4.8
2016-Jun-23 11:23N 20°35' W 087°01'6 6.9
2016-Jun-23 10:34N 20°31' W 086°57'0 0.0
2016-Jun-23 03:11N 20°31' W 086°57'0 0.0
2016-Jun-23 02:33N 20°31' W 086°57'5 3.5
2016-Jun-23 01:17N 20°34' W 087°01'5 6.3
2016-Jun-23 00:33N 20°31' W 086°57'0 0.0
2016-Jun-22 23:34N 20°31' W 086°57'0 0.1
2016-Jun-22 22:33N 20°31' W 086°57'5 3.9
2016-Jun-22 21:20N 20°34' W 087°01'5 6.2
2016-Jun-22 20:33N 20°31' W 086°57'0 0.3
2016-Jun-22 19:33N 20°31' W 086°57'0 0.4
2016-Jun-22 18:33N 20°31' W 086°57'1 1.2
2016-Jun-22 17:33N 20°32' W 086°58'5 4.5
2016-Jun-22 16:25N 20°35' W 087°02'4 4.8
2016-Jun-22 15:33N 20°32' W 086°59'2 1.3
2016-Jun-22 14:16N 20°34' W 087°00'3 4.3
2016-Jun-22 13:34N 20°31' W 086°58'5 4.6
2016-Jun-22 12:23N 20°35' W 087°02'6 7.5
2016-Jun-22 11:33N 20°31' W 086°57'0 0.0
2016-Jun-22 01:34N 20°31' W 086°57'4 3.0
2016-Jun-22 00:15N 20°33' W 087°00'4 5.2
2016-Jun-21 23:34N 20°31' W 086°57'4 3.4
2016-Jun-21 22:22N 20°34' W 087°01'4 5.4
2016-Jun-21 21:33N 20°31' W 086°57'0 0.1
2016-Jun-21 20:34N 20°31' W 086°57'0 0.0
2016-Jun-21 19:33N 20°31' W 086°57'0 0.0
2016-Jun-21 18:33N 20°31' W 086°57'0 0.0
2016-Jun-21 17:33N 20°31' W 086°57'3 2.6
2016-Jun-21 16:33N 20°33' W 086°59'2 1.9
2016-Jun-21 15:18N 20°34' W 087°01'5 6.5
2016-Jun-21 14:34N 20°31' W 086°57'4 3.2
2016-Jun-21 13:18N 20°34' W 087°00'3 4.1
2016-Jun-21 12:34N 20°31' W 086°58'5 4.5
2016-Jun-21 11:23N 20°35' W 087°02'5 0.7
2016-Jun-21 03:34N 20°32' W 086°58'  

Dump ship's entire track history